This is the latest recevied weather packets stored in our database for station/object VK1KCM-5. If no packets are shown the sender has not sent any weather packets the latest 10 day(s).
| Time | Temp. | Humidity | Pressure | Rain* | Wind** | Luminosity | Snow |
|---|---|---|---|---|---|---|---|
| 1787983251 | 18.33° C | 56% | 1025.4 hPa | 0 mm | - | - | - |
| 1787982963 | 18.89° C | 55% | 1025 hPa | 0 mm | - | - | - |
| 1787982673 | 18.89° C | 55% | 1025 hPa | 0 mm | - | - | - |
| 1787982418 | 18.33° C | 56% | 1025.1 hPa | 0 mm | - | - | - |
| 1787982122 | 18.33° C | 56% | 1025.3 hPa | 0 mm | - | - | - |
| 1787981853 | 17.78° C | 55% | 1025.2 hPa | 0 mm | - | - | - |
| 1787981613 | 17.78° C | 54% | 1025.3 hPa | 0 mm | - | - | - |
| 1787981325 | 18.33° C | 55% | 1025.2 hPa | 0 mm | - | - | - |
| 1787981078 | 17.78° C | 52% | 1025 hPa | 0 mm | - | - | - |
| 1787980788 | 17.78° C | 53% | 1025.1 hPa | 0 mm | - | - | - |
| 1787980543 | 17.78° C | 53% | 1025.1 hPa | 0 mm | - | - | - |
| 1787980278 | 17.78° C | 53% | 1025.3 hPa | 0 mm | - | - | - |
| 1787979978 | 18.33° C | 50% | 1025 hPa | 0 mm | - | - | - |
| 1787979711 | 17.78° C | 50% | 1025.4 hPa | 0 mm | - | - | - |
| 1787979438 | 18.33° C | 49% | 1025.3 hPa | 0 mm | - | - | - |
| 1787979139 | 18.89° C | 48% | 1025 hPa | 0 mm | - | - | - |
| 1787978878 | 18.89° C | 49% | 1025 hPa | 0 mm | - | - | - |
| 1787978615 | 18.89° C | 50% | 1025.2 hPa | 0 mm | - | - | - |
| 1787978323 | 20° C | 47% | 1024.9 hPa | 0 mm | - | - | - |
| 1787978068 | 20° C | 47% | 1024.9 hPa | 0 mm | - | - | - |
| 1787977818 | 19.44° C | 46% | 1024.9 hPa | 0 mm | - | - | - |
| 1787977548 | 19.44° C | 46% | 1024.9 hPa | 0 mm | - | - | - |
| 1787977248 | 20° C | 47% | 1024.7 hPa | 0 mm | - | - | - |
| 1787976991 | 19.44° C | 46% | 1024.7 hPa | 0 mm | - | - | - |
| 1787976748 | 20° C | 46% | 1024.7 hPa | 0 mm | - | - | - |
* Rain latest hour (hover to see other rain measurements)
** Current wind speed in m/s (hover to see current wind gust speed)